Time;durP1;ratioP1;P1;durP2;ratioP2;P2;SDS_P1;SDS_P2;PMS_P1;PMS_P2;Temp;Humidity;BMP_temperature;BMP_pressure;BME280_temperature;BME280_humidity;BME280_pressure;Samples;Min_cycle;Max_cycle;Signal;HPM_P1;HPM_P2
2023/05/09 00:01:05;;;;;;;8.50;7.10;;;;;;;5.85;91.68;101307.09;186601;1235;59057;-57
2023/05/09 00:05:31;;;;;;;10.20;7.60;;;;;;;5.95;91.55;101305.95;185737;1241;43093;-57
2023/05/09 00:09:33;;;;;;;12.30;7.30;;;;;;;5.96;90.87;101303.27;185834;1241;43025;-57
2023/05/09 00:13:34;;;;;;;10.30;7.00;;;;;;;5.90;91.27;101304.60;185803;1241;43732;-57
2023/05/09 00:17:37;;;;;;;12.00;6.50;;;;;;;5.94;91.28;101294.59;185785;1241;43004;-57
2023/05/09 00:21:38;;;;;;;10.10;6.20;;;;;;;5.94;90.97;101287.52;185762;1244;58441;-58
2023/05/09 00:25:40;;;;;;;14.80;8.70;;;;;;;5.95;90.38;101282.56;185809;1241;43131;-57
2023/05/09 00:29:42;;;;;;;10.40;8.40;;;;;;;5.96;90.20;101284.61;186311;1235;42972;-57
2023/05/09 00:33:43;;;;;;;18.00;8.00;;;;;;;5.98;90.10;101282.02;186605;1235;43090;-57
2023/05/09 00:37:45;;;;;;;10.40;7.90;;;;;;;6.02;90.10;101279.95;186556;1235;43367;-57
2023/05/09 00:41:47;;;;;;;9.70;7.90;;;;;;;6.05;90.07;101278.77;186516;1235;58023;-57
2023/05/09 00:45:49;;;;;;;15.70;10.20;;;;;;;6.07;89.77;101270.05;186568;1235;43323;-57
2023/05/09 00:49:50;;;;;;;16.10;10.50;;;;;;;6.08;89.51;101269.98;186566;1235;43222;-57
2023/05/09 00:53:52;;;;;;;12.30;9.00;;;;;;;6.05;89.67;101269.08;186595;1235;43025;-57
2023/05/09 00:57:53;;;;;;;10.50;7.90;;;;;;;6.02;89.48;101262.00;186585;1235;43689;-57
2023/05/09 01:01:55;;;;;;;15.30;8.10;;;;;;;5.96;89.27;101260.65;186473;1235;57365;-58
2023/05/09 01:06:21;;;;;;;24.30;13.90;;;;;;;5.95;89.49;101256.98;186623;1235;42966;-57
2023/05/09 01:10:42;;;;;;;15.70;11.40;;;;;;;5.90;89.85;101254.77;186584;1239;42914;-57
2023/05/09 01:14:56;;;;;;;20.10;14.00;;;;;;;5.87;90.22;101255.78;186702;1235;43611;-57
2023/05/09 01:19:04;;;;;;;21.70;13.20;;;;;;;5.84;90.20;101255.73;186617;1235;42972;-57
2023/05/09 01:23:35;;;;;;;24.40;14.60;;;;;;;5.84;90.09;101254.33;186628;1235;56932;-57
2023/05/09 01:28:18;;;;;;;25.20;13.80;;;;;;;5.81;90.13;101254.65;186587;1236;43631;-57
2023/05/09 01:32:24;;;;;;;20.00;13.10;;;;;;;5.82;89.83;101253.71;186644;1237;43324;-57
2023/05/09 01:36:29;;;;;;;24.90;13.10;;;;;;;5.77;89.42;101253.44;186526;1235;43492;-57
2023/05/09 01:40:33;;;;;;;24.20;14.20;;;;;;;5.47;90.36;101254.23;186608;1236;42967;-57
2023/05/09 01:44:38;;;;;;;20.70;11.30;;;;;;;5.38;90.60;101254.63;186611;1236;59915;-56
2023/05/09 01:48:41;;;;;;;22.80;12.70;;;;;;;5.39;90.45;101253.57;186667;1236;43605;-57
2023/05/09 01:52:46;;;;;;;14.90;11.00;;;;;;;5.35;89.63;101245.83;186473;1235;43423;-57
2023/05/09 01:56:48;;;;;;;15.10;10.80;;;;;;;5.29;89.40;101242.55;186688;1235;43681;-57
2023/05/09 02:00:50;;;;;;;16.80;10.30;;;;;;;5.22;88.70;101240.05;186610;1235;42889;-58
2023/05/09 02:04:57;;;;;;;14.60;10.50;;;;;;;5.12;88.43;101240.11;186759;1236;58018;-57
2023/05/09 02:09:00;;;;;;;15.80;11.10;;;;;;;5.10;88.84;101237.05;186560;1235;43665;-57
2023/05/09 02:13:02;;;;;;;12.90;9.40;;;;;;;5.08;90.07;101238.36;186611;1235;42956;-57
2023/05/09 02:17:05;;;;;;;14.40;10.80;;;;;;;5.08;89.49;101238.37;186520;1235;42979;-57
2023/05/09 02:21:17;;;;;;;15.70;9.00;;;;;;;5.01;89.09;101237.27;186584;1235;43736;-57
2023/05/09 02:25:19;;;;;;;14.90;10.00;;;;;;;4.91;89.25;101233.64;186660;1235;59415;-57
2023/05/09 02:29:24;;;;;;;16.20;10.10;;;;;;;4.88;88.93;101232.38;186592;1235;43714;-57
2023/05/09 02:33:33;;;;;;;11.80;9.30;;;;;;;4.81;88.98;101231.09;186693;1235;43597;-57
2023/05/09 02:37:35;;;;;;;17.00;9.90;;;;;;;4.76;89.36;101232.88;186506;1235;43310;-57
2023/05/09 02:41:37;;;;;;;10.00;7.90;;;;;;;4.76;89.33;101228.34;186542;1235;42913;-57
2023/05/09 02:45:39;;;;;;;10.70;9.10;;;;;;;4.75;89.35;101227.66;186757;1235;43781;-57
2023/05/09 02:49:42;;;;;;;11.00;8.10;;;;;;;4.72;88.97;101223.22;186626;1239;43419;-57
2023/05/09 02:53:43;;;;;;;9.10;7.70;;;;;;;4.72;90.35;101224.39;186686;1235;43672;-57
2023/05/09 02:57:46;;;;;;;16.70;8.00;;;;;;;4.75;89.80;101218.67;186724;1235;42946;-57
2023/05/09 03:01:47;;;;;;;11.90;8.20;;;;;;;4.71;88.66;101215.69;186662;1235;43515;-57
2023/05/09 03:05:49;;;;;;;14.20;7.80;;;;;;;4.53;90.82;101219.94;186691;1235;59354;-57
2023/05/09 03:09:51;;;;;;;15.40;10.80;;;;;;;4.34;92.70;101219.30;186620;1236;43036;-58
2023/05/09 03:14:42;;;;;;;9.80;8.80;;;;;;;4.30;94.33;101217.02;186736;1235;43297;-57
2023/05/09 03:18:44;;;;;;;13.30;9.10;;;;;;;4.15;96.82;101207.96;186715;1235;43714;-58
2023/05/09 03:22:47;;;;;;;13.40;9.30;;;;;;;4.25;96.35;101202.11;186705;1235;42925;-57
2023/05/09 03:27:14;;;;;;;10.80;9.10;;;;;;;4.41;96.03;101201.48;186742;1235;58211;-58
2023/05/09 03:35:39;;;;;;;11.80;8.70;;;;;;;4.44;95.62;101206.05;186896;1234;43603;-57
2023/05/09 03:39:42;;;;;;;12.00;9.40;;;;;;;4.45;96.10;101207.27;186734;1234;43541;-57
2023/05/09 03:43:45;;;;;;;11.40;8.50;;;;;;;4.68;96.53;101209.33;186969;1235;43709;-57
2023/05/09 03:47:48;;;;;;;16.40;8.90;;;;;;;4.90;95.57;101211.20;186969;1235;59259;-57
2023/05/09 03:51:51;;;;;;;13.20;9.60;;;;;;;5.01;93.71;101213.16;186897;1235;42991;-58
2023/05/09 03:55:53;;;;;;;15.50;10.30;;;;;;;5.16;94.36;101215.48;186966;1235;42988;-57
2023/05/09 03:59:56;;;;;;;13.40;9.90;;;;;;;5.40;95.15;101208.85;186911;1235;43169;-58
2023/05/09 04:03:59;;;;;;;14.00;10.00;;;;;;;5.62;94.78;101210.31;186831;1234;43557;-57
2023/05/09 04:08:01;;;;;;;13.90;10.70;;;;;;;5.62;94.16;101209.75;186749;1234;57272;-57
2023/05/09 04:12:02;;;;;;;11.60;8.30;;;;;;;5.85;95.90;101208.87;186911;1235;43749;-57
2023/05/09 04:16:04;;;;;;;11.20;9.20;;;;;;;6.68;100.00;101213.53;186908;1234;42951;-57
2023/05/09 04:20:07;;;;;;;15.30;10.00;;;;;;;8.08;95.52;101210.51;186836;1234;43405;-57
2023/05/09 04:24:08;;;;;;;13.50;10.30;;;;;;;9.61;91.54;101208.41;186618;1235;42988;-58
2023/05/09 04:28:13;;;;;;;17.90;11.30;;;;;;;11.01;83.19;101200.92;186938;1234;59174;-57
2023/05/09 04:32:14;;;;;;;24.10;21.60;;;;;;;12.01;72.52;101199.91;186725;1234;43143;-58
2023/05/09 04:36:16;;;;;;;148.20;131.90;;;;;;;12.84;70.24;101194.28;186777;1235;43895;-58
2023/05/09 04:40:17;;;;;;;44.60;36.70;;;;;;;13.63;67.09;101191.08;186601;1235;43782;-58
2023/05/09 04:44:20;;;;;;;33.10;26.90;;;;;;;14.24;63.35;101191.27;186687;1235;43703;-60
2023/05/09 04:48:21;;;;;;;26.00;18.80;;;;;;;14.47;61.23;101192.76;186842;1235;57951;-60
2023/05/09 04:52:23;;;;;;;17.50;14.80;;;;;;;14.42;59.84;101196.06;186805;1235;43069;-61
2023/05/09 04:56:25;;;;;;;31.00;22.10;;;;;;;14.34;59.69;101192.64;186707;1235;43464;-61
2023/05/09 05:00:26;;;;;;;24.40;14.90;;;;;;;14.11;59.69;101192.85;186744;1235;43055;-61
2023/05/09 05:04:30;;;;;;;15.50;14.00;;;;;;;14.08;60.67;101188.67;186843;1235;43790;-60
2023/05/09 05:09:04;;;;;;;15.40;12.00;;;;;;;14.14;60.39;101191.92;186850;1235;57215;-60
2023/05/09 05:18:07;;;;;;;13.10;11.80;;;;;;;13.54;61.17;101191.39;186262;1238;43739;-60
2023/05/09 05:22:09;;;;;;;18.30;9.10;;;;;;;13.35;61.80;101186.98;186396;1238;43517;-60
2023/05/09 05:26:13;;;;;;;19.40;14.50;;;;;;;13.17;62.51;101186.11;186213;1238;43517;-60
2023/05/09 05:30:15;;;;;;;14.70;11.60;;;;;;;13.21;63.95;101185.06;186410;1238;59417;-60
2023/05/09 05:34:19;;;;;;;16.00;13.50;;;;;;;13.39;64.43;101179.73;186465;1238;43337;-60
2023/05/09 05:38:20;;;;;;;14.10;10.20;;;;;;;13.54;63.70;101180.84;186409;1238;43087;-60
2023/05/09 05:42:25;;;;;;;11.60;9.20;;;;;;;13.65;63.93;101183.23;186173;1238;43075;-60
2023/05/09 05:46:27;;;;;;;101.50;70.50;;;;;;;13.73;63.32;101179.90;186370;1238;43143;-60
2023/05/09 05:50:35;;;;;;;25.80;21.00;;;;;;;13.62;63.33;101174.50;186404;1237;43687;-60
2023/05/09 05:54:36;;;;;;;22.20;18.50;;;;;;;13.34;63.54;101170.12;186391;1237;43431;-60
2023/05/09 05:58:38;;;;;;;18.30;16.40;;;;;;;13.15;64.79;101164.48;186394;1238;43013;-61
2023/05/09 06:02:43;;;;;;;19.50;12.70;;;;;;;13.02;65.96;101166.41;186297;1237;43024;-60
2023/05/09 06:06:45;;;;;;;12.00;8.90;;;;;;;12.97;66.95;101163.02;186394;1237;43444;-60
2023/05/09 06:10:47;;;;;;;10.60;7.70;;;;;;;12.64;69.19;101157.73;186249;1237;59195;-60
2023/05/09 06:14:48;;;;;;;16.20;10.20;;;;;;;12.55;69.84;101160.05;186230;1238;43716;-60
2023/05/09 06:18:51;;;;;;;13.70;9.80;;;;;;;12.66;69.39;101164.36;186409;1238;43714;-60
2023/05/09 06:22:56;;;;;;;18.00;10.60;;;;;;;12.87;69.31;101164.71;186417;1238;43758;-60
2023/05/09 06:26:58;;;;;;;17.60;11.20;;;;;;;13.08;69.68;101159.70;186389;1237;42942;-60
2023/05/09 06:31:01;;;;;;;19.60;11.70;;;;;;;13.03;69.86;101156.54;186318;1238;58062;-59
2023/05/09 06:35:02;;;;;;;17.50;11.40;;;;;;;12.87;69.56;101155.27;186243;1238;43050;-60
2023/05/09 06:39:04;;;;;;;20.90;12.90;;;;;;;12.81;69.51;101148.45;186382;1238;42934;-60
2023/05/09 06:43:06;;;;;;;15.00;9.60;;;;;;;12.83;69.00;101150.07;186453;1238;43132;-60
2023/05/09 07:09:26;;;;;;;13.30;10.10;;;;;;;13.40;67.91;101136.38;186795;1235;43342;-60
2023/05/09 07:29:35;;;;;;;13.20;10.40;;;;;;;13.93;67.35;101121.59;186341;1236;43015;-59
2023/05/09 07:33:36;;;;;;;12.50;8.40;;;;;;;13.99;67.87;101117.67;186372;1237;43696;-61
2023/05/09 07:37:38;;;;;;;15.20;10.40;;;;;;;14.15;67.29;101112.14;186381;1238;43809;-61
2023/05/09 07:41:39;;;;;;;20.10;9.40;;;;;;;14.17;66.25;101110.73;186386;1240;57031;-60
2023/05/09 07:45:40;;;;;;;11.00;8.40;;;;;;;14.16;65.97;101101.84;186356;1240;43684;-61
2023/05/09 07:49:44;;;;;;;14.00;10.20;;;;;;;14.34;66.35;101093.25;186452;1237;42924;-60
2023/05/09 07:53:45;;;;;;;11.00;7.80;;;;;;;14.22;65.18;101088.02;186471;1236;43304;-60
2023/05/09 07:57:47;;;;;;;13.60;10.10;;;;;;;14.21;65.80;101083.26;186419;1236;42940;-60
2023/05/09 08:01:49;;;;;;;10.00;7.50;;;;;;;14.34;65.35;101069.66;186443;1239;58304;-61
2023/05/09 08:05:55;;;;;;;12.40;10.30;;;;;;;14.49;65.96;101066.84;186349;1240;43330;-61
2023/05/09 08:09:56;;;;;;;12.70;10.00;;;;;;;14.82;65.85;101058.82;186427;1237;43093;-60
2023/05/09 08:13:58;;;;;;;12.10;9.50;;;;;;;15.07;65.50;101053.80;186509;1236;43005;-60
2023/05/09 08:18:11;;;;;;;9.60;8.70;;;;;;;15.28;65.15;101051.23;186369;1238;43409;-60
2023/05/09 08:22:17;;;;;;;11.90;8.70;;;;;;;15.21;63.98;101044.17;186370;1238;58436;-61
2023/05/09 08:26:18;;;;;;;13.20;9.30;;;;;;;15.14;62.79;101037.61;186521;1237;43049;-61
2023/05/09 08:30:20;;;;;;;12.40;8.20;;;;;;;15.14;62.07;101027.63;186482;1236;43711;-60
2023/05/09 08:34:26;;;;;;;11.20;6.20;;;;;;;15.23;62.95;101022.48;186523;1238;43034;-60
2023/05/09 08:38:27;;;;;;;11.20;6.50;;;;;;;15.29;63.00;101019.16;186468;1237;42941;-60
2023/05/09 08:42:30;;;;;;;29.10;19.50;;;;;;;15.30;61.07;101014.08;186385;1240;58391;-61
2023/05/09 08:46:41;;;;;;;12.70;8.00;;;;;;;15.29;61.64;101014.88;186431;1239;43319;-61
2023/05/09 08:50:43;;;;;;;9.00;7.00;;;;;;;15.44;62.47;101003.31;186509;1240;43469;-60
2023/05/09 08:54:45;;;;;;;11.30;8.60;;;;;;;15.63;62.67;100998.75;186340;1236;43319;-60
2023/05/09 08:59:04;;;;;;;9.10;7.30;;;;;;;15.73;60.91;100995.70;186345;1237;43654;-60
2023/05/09 09:03:06;;;;;;;10.10;7.70;;;;;;;15.73;63.31;100994.09;186405;1238;58400;-60
2023/05/09 09:07:08;;;;;;;15.10;8.30;;;;;;;16.02;61.83;100983.77;186474;1237;43699;-60
2023/05/09 09:11:12;;;;;;;12.70;7.30;;;;;;;16.10;60.72;100983.53;186416;1238;43386;-60
2023/05/09 09:15:16;;;;;;;11.60;7.30;;;;;;;16.12;60.90;100977.61;186371;1237;43784;-60
2023/05/09 09:19:21;;;;;;;8.90;6.30;;;;;;;15.95;60.51;100978.80;186365;1238;43412;-60
2023/05/09 09:23:24;;;;;;;12.10;7.80;;;;;;;15.89;60.76;100971.86;186463;1236;58389;-60
2023/05/09 09:27:26;;;;;;;15.50;7.30;;;;;;;16.09;59.63;100972.73;186486;1236;43051;-60
2023/05/09 09:31:41;;;;;;;;;;;;;;;;;;;;;
2023/05/09 09:47:41;;;;;;;11.30;7.70;;;;;;;16.45;59.34;100948.02;186885;1235;58124;-60
2023/05/09 09:51:57;;;;;;;12.90;7.60;;;;;;;16.44;60.11;100941.25;186881;1235;43079;-60
2023/05/09 09:55:59;;;;;;;8.20;6.70;;;;;;;16.40;58.38;100938.13;186892;1235;43370;-60
2023/05/09 10:00:00;;;;;;;8.50;5.90;;;;;;;16.40;59.46;100938.81;186892;1235;43150;-60
2023/05/09 10:04:02;;;;;;;13.20;6.90;;;;;;;16.44;58.61;100940.20;186843;1235;42911;-60
2023/05/09 10:09:02;;;;;;;11.30;7.70;;;;;;;16.39;56.83;100938.56;186837;1235;59459;-61
2023/05/09 10:13:09;;;;;;;10.30;6.50;;;;;;;16.45;58.30;100932.45;186813;1236;43070;-61
2023/05/09 10:17:13;;;;;;;9.20;5.20;;;;;;;16.47;57.45;100924.52;186618;1235;43076;-60
2023/05/09 10:21:15;;;;;;;10.70;7.10;;;;;;;16.59;59.91;100916.45;186876;1235;43065;-60
2023/05/09 10:25:20;;;;;;;9.50;6.50;;;;;;;16.77;58.02;100912.72;186834;1235;42975;-60
2023/05/09 10:29:58;;;;;;;12.70;7.00;;;;;;;16.77;58.59;100905.36;186815;1239;57941;-60
2023/05/09 10:34:08;;;;;;;8.60;6.30;;;;;;;16.75;57.18;100899.52;185054;1241;43950;-87
2023/05/09 10:38:11;;;;;;;6.40;5.30;;;;;;;16.77;57.56;100899.05;184928;1241;43662;-87
2023/05/09 10:42:13;;;;;;;9.80;5.70;;;;;;;16.72;56.86;100888.80;184901;1242;43830;-88
2023/05/09 10:46:16;;;;;;;10.30;5.50;;;;;;;16.97;58.72;100885.71;185027;1242;43786;-87
2023/05/09 10:50:20;;;;;;;11.00;6.70;;;;;;;17.02;55.85;100881.27;185002;1242;59507;-87
2023/05/09 10:54:27;;;;;;;8.10;6.40;;;;;;;16.92;56.99;100876.63;184921;1241;44094;-88
2023/05/09 10:58:35;;;;;;;21.70;7.00;;;;;;;17.25;58.38;100873.02;184954;1245;43953;-87
2023/05/09 11:02:37;;;;;;;9.30;5.80;;;;;;;17.46;57.49;100868.59;184864;1241;43734;-87
2023/05/09 11:06:47;;;;;;;14.80;6.50;;;;;;;17.22;55.75;100863.02;184913;1242;43987;-87
2023/05/09 11:10:50;;;;;;;9.60;5.80;;;;;;;17.33;55.52;100865.80;185518;1236;57896;-87
2023/05/09 11:14:54;;;;;;;7.30;5.50;;;;;;;17.27;54.54;100850.46;185559;1237;43983;-87
2023/05/09 11:18:56;;;;;;;9.60;6.20;;;;;;;17.16;55.20;100841.23;185646;1239;44002;-87
2023/05/09 11:22:59;;;;;;;7.30;5.40;;;;;;;17.11;55.04;100844.16;185647;1236;43998;-88
2023/05/09 11:27:13;;;;;;;10.80;5.40;;;;;;;17.24;55.62;100831.19;185617;1235;44110;-87
2023/05/09 11:31:16;;;;;;;11.90;4.70;;;;;;;17.38;53.98;100829.13;185759;1239;59592;-88
2023/05/09 11:35:22;;;;;;;6.10;5.00;;;;;;;17.34;54.27;100816.36;186034;1235;43827;-88
2023/05/09 11:39:24;;;;;;;6.20;4.10;;;;;;;17.35;53.59;100805.55;185760;1235;43810;-87
2023/05/09 11:43:26;;;;;;;5.20;4.70;;;;;;;17.34;53.91;100804.61;185577;1239;200274;-88
2023/05/09 11:47:29;;;;;;;9.60;5.50;;;;;;;17.57;55.42;100796.01;185724;1235;43770;-87
2023/05/09 11:51:35;;;;;;;8.10;4.90;;;;;;;17.71;53.24;100793.46;185682;1239;59282;-87
2023/05/09 11:55:37;;;;;;;9.80;4.70;;;;;;;17.86;55.49;100787.10;185727;1235;43737;-87
2023/05/09 11:59:39;;;;;;;6.80;2.90;;;;;;;18.01;53.30;100789.30;185532;1235;43838;-87
2023/05/09 12:03:43;;;;;;;2.70;2.30;;;;;;;18.00;52.51;100781.66;185676;1235;43796;-88
2023/05/09 12:07:46;;;;;;;6.40;4.10;;;;;;;18.06;52.39;100778.73;185639;1235;43842;-87
2023/05/09 12:11:48;;;;;;;6.00;3.50;;;;;;;18.05;52.12;100763.38;185983;1235;59250;-88
2023/05/09 12:15:59;;;;;;;7.40;3.70;;;;;;;18.11;52.43;100759.13;185925;1235;44029;-87
2023/05/09 12:20:04;;;;;;;9.40;3.90;;;;;;;18.30;52.21;100753.05;185947;1239;44050;-88
2023/05/09 12:24:06;;;;;;;3.80;3.30;;;;;;;18.18;50.49;100752.48;185902;1235;43905;-88
2023/05/09 12:28:08;;;;;;;6.80;3.60;;;;;;;18.24;51.34;100747.92;185914;1235;44035;-88
2023/05/09 12:32:15;;;;;;;10.00;3.80;;;;;;;18.34;50.32;100746.30;185980;1235;59828;-88
2023/05/09 12:36:17;;;;;;;5.50;3.90;;;;;;;18.15;50.53;100737.92;185904;1235;44207;-88
2023/05/09 12:40:19;;;;;;;8.00;6.00;;;;;;;18.22;51.06;100733.95;185980;1239;44023;-87
2023/05/09 12:44:23;;;;;;;33.70;17.70;;;;;;;18.29;51.63;100729.42;185858;1236;44026;-88
2023/05/09 12:48:25;;;;;;;22.40;10.10;;;;;;;18.31;50.27;100710.77;185691;1235;44030;-87
2023/05/09 12:52:38;;;;;;;8.90;3.40;;;;;;;18.31;49.11;100704.75;185546;1235;59422;-87
2023/05/09 12:57:00;;;;;;;8.40;3.30;;;;;;;18.23;49.81;100701.94;185818;1239;43693;-85
2023/05/09 13:01:05;;;;;;;5.40;2.80;;;;;;;18.20;49.99;100695.38;185736;1235;43545;-87
2023/05/09 13:05:14;;;;;;;6.10;3.90;;;;;;;18.36;50.40;100692.43;185720;1238;43851;-87
2023/05/09 13:09:17;;;;;;;6.00;3.50;;;;;;;18.42;48.99;100686.40;185677;1240;43823;-88
2023/05/09 13:13:20;;;;;;;26.60;3.40;;;;;;;18.40;48.94;100683.17;185682;1239;57757;-88
2023/05/09 13:17:22;;;;;;;10.00;4.30;;;;;;;18.47;48.59;100675.29;185669;1235;43716;-87
2023/05/09 13:21:24;;;;;;;38.70;6.20;;;;;;;18.50;49.39;100670.70;185621;1239;44391;-86
2023/05/09 13:25:25;;;;;;;6.00;3.20;;;;;;;18.48;47.80;100662.17;185650;1235;43845;-87
2023/05/09 13:29:27;;;;;;;6.50;3.80;;;;;;;18.55;47.82;100654.05;185653;1235;44019;-85
2023/05/09 13:33:29;;;;;;;10.60;3.10;;;;;;;18.53;48.69;100646.63;185794;1235;59363;-86
2023/05/09 13:37:30;;;;;;;5.40;2.10;;;;;;;18.59;47.88;100632.54;185723;1239;43878;-86
2023/05/09 13:41:35;;;;;;;9.70;4.10;;;;;;;18.41;47.56;100625.63;185895;1235;43917;-88
2023/05/09 13:45:39;;;;;;;3.80;3.30;;;;;;;18.53;47.31;100621.53;185831;1235;43916;-86
2023/05/09 13:49:41;;;;;;;4.10;2.70;;;;;;;18.58;48.69;100613.19;185890;1235;43791;-88
2023/05/09 13:53:43;;;;;;;7.50;2.50;;;;;;;18.67;48.68;100606.63;185687;1235;59459;-87
2023/05/09 13:57:45;;;;;;;3.60;2.40;;;;;;;18.77;47.81;100594.92;185675;1235;43818;-88
2023/05/09 14:01:46;;;;;;;9.00;3.10;;;;;;;18.72;46.84;100590.63;185715;1239;43839;-88
2023/05/09 14:05:49;;;;;;;9.90;2.90;;;;;;;18.77;47.16;100584.85;185705;1239;44102;-85
2023/05/09 14:09:51;;;;;;;7.70;3.50;;;;;;;18.82;48.28;100572.88;185652;1239;43747;-87
2023/05/09 14:14:10;;;;;;;9.70;2.90;;;;;;;19.00;49.25;100577.15;185793;1235;58021;-87
2023/05/09 14:18:12;;;;;;;4.30;3.50;;;;;;;19.11;49.27;100572.54;185779;1235;43952;-87
2023/05/09 14:22:20;;;;;;;4.00;2.90;;;;;;;19.03;47.70;100567.05;185744;1235;43744;-88
2023/05/09 14:26:22;;;;;;;7.40;3.20;;;;;;;19.08;47.83;100560.25;185684;1235;43941;-88
2023/05/09 14:30:25;;;;;;;7.20;3.90;;;;;;;19.10;47.39;100551.67;185747;1235;43730;-87
2023/05/09 14:34:27;;;;;;;21.30;5.30;;;;;;;18.99;48.06;100549.38;185629;1235;59388;-88
2023/05/09 14:38:31;;;;;;;8.00;2.90;;;;;;;18.99;47.76;100547.27;185607;1235;43785;-88
2023/05/09 14:42:34;;;;;;;5.90;4.10;;;;;;;19.03;48.29;100543.05;185637;1235;44089;-89
2023/05/09 14:46:36;;;;;;;8.70;3.30;;;;;;;19.04;48.25;100540.04;185675;1235;43993;-88
2023/05/09 14:50:38;;;;;;;5.70;3.60;;;;;;;19.14;50.07;100536.55;185705;1235;43831;-88
2023/05/09 14:54:40;;;;;;;7.60;3.10;;;;;;;19.27;49.15;100531.39;185640;1235;59319;-88
2023/05/09 14:58:42;;;;;;;8.80;4.20;;;;;;;19.30;49.29;100529.49;185917;1235;43939;-89
2023/05/09 15:02:44;;;;;;;8.50;4.50;;;;;;;19.19;48.91;100525.05;186057;1235;44021;-88
2023/05/09 15:06:46;;;;;;;7.40;3.30;;;;;;;19.15;48.76;100523.30;186208;1235;44059;-88
2023/05/09 15:10:49;;;;;;;5.40;3.40;;;;;;;19.16;49.58;100517.06;186069;1235;43755;-89
2023/05/09 15:14:53;;;;;;;5.30;3.40;;;;;;;19.16;49.27;100516.16;185914;1235;58005;-88
2023/05/09 15:18:55;;;;;;;4.90;3.30;;;;;;;19.04;48.28;100507.16;185812;1235;44034;-90
2023/05/09 15:22:57;;;;;;;11.20;3.60;;;;;;;18.99;48.90;100504.14;186023;1235;43750;-88
2023/05/09 15:26:59;;;;;;;7.00;3.80;;;;;;;18.94;49.30;100495.80;185837;1235;43663;-87
2023/05/09 15:31:02;;;;;;;5.30;3.70;;;;;;;18.98;49.70;100495.77;185789;1235;43805;-88
2023/05/09 15:35:05;;;;;;;5.10;3.80;;;;;;;18.96;50.11;100492.31;185781;1235;58433;-87
2023/05/09 15:39:07;;;;;;;6.60;3.60;;;;;;;18.94;50.28;100485.55;185674;1239;43859;-87
2023/05/09 15:43:09;;;;;;;5.50;3.90;;;;;;;18.88;50.25;100478.00;185702;1236;43757;-86
2023/05/09 15:47:11;;;;;;;7.30;4.70;;;;;;;18.99;51.94;100476.83;185752;1235;43737;-86
2023/05/09 15:51:13;;;;;;;8.40;4.20;;;;;;;18.83;50.43;100477.30;185769;1235;43738;-88
2023/05/09 15:55:15;;;;;;;5.40;4.50;;;;;;;18.82;49.94;100473.59;185651;1235;57996;-87
2023/05/09 15:59:17;;;;;;;4.70;3.60;;;;;;;18.75;50.23;100465.08;185477;1235;44149;-87
2023/05/09 16:03:19;;;;;;;5.70;4.20;;;;;;;18.67;49.56;100461.30;185726;1235;43747;-87
2023/05/09 16:07:22;;;;;;;10.30;5.40;;;;;;;18.62;49.94;100456.35;185668;1235;43898;-87
2023/05/09 16:11:24;;;;;;;4.90;3.40;;;;;;;18.57;49.17;100451.07;185894;1235;43937;-87
2023/05/09 16:15:26;;;;;;;11.00;4.00;;;;;;;18.44;49.70;100445.54;185702;1235;57895;-87
2023/05/09 16:19:28;;;;;;;6.80;3.90;;;;;;;18.51;50.16;100442.70;185692;1235;43760;-87
2023/05/09 16:23:30;;;;;;;7.80;5.20;;;;;;;18.34;51.07;100439.34;185808;1235;43814;-86
2023/05/09 16:27:32;;;;;;;5.80;3.90;;;;;;;18.33;50.78;100435.18;185728;1235;43921;-87
2023/05/09 16:31:33;;;;;;;5.90;4.30;;;;;;;18.28;50.60;100429.64;185776;1235;43974;-87
2023/05/09 16:35:37;;;;;;;4.30;3.50;;;;;;;18.26;50.66;100427.86;185654;1237;59409;-87
2023/05/09 16:39:38;;;;;;;3.80;3.50;;;;;;;18.17;51.32;100421.98;185742;1238;44050;-87
2023/05/09 16:43:41;;;;;;;16.80;6.10;;;;;;;18.06;51.39;100415.35;185654;1235;44065;-87
2023/05/09 16:47:43;;;;;;;6.30;4.40;;;;;;;17.94;52.47;100411.38;185646;1235;43767;-87
2023/05/09 16:51:45;;;;;;;5.50;4.20;;;;;;;17.90;53.32;100404.73;185778;1235;43675;-87
2023/05/09 16:55:47;;;;;;;8.10;4.50;;;;;;;17.79;53.79;100400.38;185679;1235;57638;-87
2023/05/09 16:59:49;;;;;;;7.00;5.00;;;;;;;17.68;53.55;100399.00;185703;1235;43918;-86
2023/05/09 17:03:51;;;;;;;8.00;4.50;;;;;;;17.63;54.16;100393.54;185646;1235;44084;-87
2023/05/09 17:07:53;;;;;;;5.80;4.10;;;;;;;17.47;54.48;100385.59;185657;1235;44098;-87
2023/05/09 17:11:55;;;;;;;9.90;6.70;;;;;;;17.38;54.46;100378.32;185696;1235;44130;-88
2023/05/09 17:15:57;;;;;;;18.70;10.50;;;;;;;17.25;54.68;100371.27;185777;1235;58037;-88
2023/05/09 17:20:03;;;;;;;36.20;20.10;;;;;;;17.12;55.40;100367.14;185918;1235;43789;-87
2023/05/09 17:24:05;;;;;;;18.40;10.60;;;;;;;16.99;55.98;100367.08;185988;1235;43694;-87
2023/05/09 17:28:07;;;;;;;29.80;5.90;;;;;;;16.83;56.35;100365.49;185929;1235;43758;-87
2023/05/09 17:32:09;;;;;;;13.00;6.00;;;;;;;16.62;57.55;100361.30;185649;1235;43743;-87
2023/05/09 17:36:11;;;;;;;6.60;4.50;;;;;;;16.49;58.45;100367.80;185803;1235;59127;-87
2023/05/09 17:40:13;;;;;;;9.50;5.50;;;;;;;16.38;58.75;100367.41;185775;1235;43958;-86
2023/05/09 17:44:15;;;;;;;5.50;4.90;;;;;;;16.28;59.13;100365.55;185621;1235;43782;-86
2023/05/09 17:48:17;;;;;;;10.30;5.20;;;;;;;16.15;60.16;100366.38;185680;1235;44083;-86
2023/05/09 17:52:20;;;;;;;6.30;5.60;;;;;;;15.96;60.99;100364.92;185612;1235;43954;-85
2023/05/09 17:56:22;;;;;;;12.10;5.80;;;;;;;15.81;60.77;100365.15;185670;1235;57998;-86
2023/05/09 18:00:24;;;;;;;5.20;4.60;;;;;;;15.68;60.44;100366.53;185688;1235;44159;-86
2023/05/09 18:04:29;;;;;;;7.20;5.70;;;;;;;15.55;60.11;100366.32;185672;1236;44205;-85
2023/05/09 18:08:31;;;;;;;6.20;5.30;;;;;;;15.45;60.20;100367.88;185875;1235;43812;-86
2023/05/09 18:12:34;;;;;;;6.50;4.10;;;;;;;15.35;60.59;100368.34;185748;1235;43926;-86
2023/05/09 18:16:38;;;;;;;39.80;9.20;;;;;;;15.22;60.92;100371.29;185954;1235;59144;-88
2023/05/09 18:20:41;;;;;;;8.30;5.80;;;;;;;15.06;61.75;100370.57;185667;1235;44056;-87
2023/05/09 18:24:43;;;;;;;8.20;6.00;;;;;;;14.84;62.73;100372.56;185789;1235;43716;-89
2023/05/09 18:28:45;;;;;;;22.20;6.90;;;;;;;14.63;63.41;100375.06;185723;1235;43716;-86
2023/05/09 18:32:47;;;;;;;11.30;6.50;;;;;;;14.49;64.03;100375.14;185683;1235;43738;-86
2023/05/09 18:36:50;;;;;;;7.80;5.90;;;;;;;14.32;64.91;100378.55;185759;1235;60608;-87
2023/05/09 18:40:52;;;;;;;10.60;6.50;;;;;;;14.11;65.34;100381.76;185849;1235;44034;-85
2023/05/09 18:44:54;;;;;;;14.60;7.10;;;;;;;13.85;66.23;100386.27;185893;1235;43729;-87
2023/05/09 18:48:55;;;;;;;8.30;6.70;;;;;;;13.62;67.11;100389.73;185774;1235;43737;-87
2023/05/09 18:52:58;;;;;;;9.30;7.70;;;;;;;13.46;67.93;100388.38;185677;1235;44034;-86
2023/05/09 18:57:01;;;;;;;11.40;8.50;;;;;;;13.36;68.21;100393.34;185645;1235;59434;-86
2023/05/09 19:01:03;;;;;;;19.50;12.10;;;;;;;13.28;68.64;100394.44;185682;1235;43961;-87
2023/05/09 19:05:06;;;;;;;23.30;13.20;;;;;;;13.19;68.63;100392.36;185595;1235;43675;-88
2023/05/09 19:09:08;;;;;;;16.40;11.70;;;;;;;13.06;69.38;100391.96;185659;1235;44001;-88
2023/05/09 19:13:10;;;;;;;15.00;12.00;;;;;;;12.65;70.58;100392.63;185704;1235;43997;-87
2023/05/09 19:17:14;;;;;;;18.80;12.70;;;;;;;12.22;73.07;100390.48;185678;1235;58082;-87
2023/05/09 19:21:17;;;;;;;18.70;14.20;;;;;;;12.10;73.56;100390.02;185742;1235;44054;-87
2023/05/09 19:25:19;;;;;;;24.50;17.50;;;;;;;12.07;73.74;100389.59;185807;1235;43615;-88
2023/05/09 19:29:21;;;;;;;23.50;14.30;;;;;;;12.01;74.35;100388.00;185638;1235;43634;-89
2023/05/09 19:33:23;;;;;;;29.90;18.00;;;;;;;11.76;74.66;100388.48;185615;1235;43709;-88